.
WxDataArchive / Data Records for 2008-04-17
2008-04-16 April 2008 2008-04-18

Data Records for Thursday, 17 April 2008

Time	Temp	Chill	HIndex	Humid	Dewpt	 Wind 	HiWind	WindDir	Rain 	Barom 
-----	----	-----	------	-----	-----	------	------	-------	-----	----- 
00:00	51.4	51.4	51.4	52	34.4	0	1	135	0.00	29.995 
00:05	51.3	51.3	51.3	52	34.3	0	2	135	0.00	29.995 
00:10	51.0	51.0	51.0	53	34.5	0	0	---	0.00	29.995 
00:15	50.7	50.7	50.7	53	34.2	0	1	135	0.00	29.995 
00:20	50.5	50.5	50.5	54	34.5	0	1	135	0.00	29.995 
00:25	50.2	50.2	50.2	54	34.2	0	0	---	0.00	29.996 
00:30	49.9	49.9	49.9	54	33.9	0	0	---	0.00	29.997 
00:35	49.8	49.8	49.8	55	34.3	0	0	---	0.00	29.996 
00:40	49.6	49.6	49.6	55	34.1	0	1	135	0.00	29.997 
00:45	49.6	49.6	49.6	55	34.1	0	0	---	0.00	29.995 
00:50	49.8	49.8	49.8	55	34.3	0	1	135	0.00	29.994 
00:55	49.8	49.8	49.8	55	34.3	0	1	135	0.00	29.993 
01:00	49.8	49.8	49.8	56	34.7	0	1	135	0.00	29.992 
01:05	49.5	49.5	49.5	56	34.5	0	1	135	0.00	29.990 
01:10	49.4	49.4	49.4	57	34.8	0	1	135	0.00	29.988 
01:15	49.2	49.2	49.2	57	34.6	0	0	---	0.00	29.986 
01:20	48.9	48.9	48.9	58	34.8	0	0	---	0.00	29.983 
01:25	48.5	48.5	48.5	58	34.4	0	0	---	0.00	29.981 
01:30	48.2	48.2	48.2	59	34.6	0	0	---	0.00	29.980 
01:35	47.7	47.7	47.7	60	34.5	0	0	---	0.00	29.980 
01:40	47.6	47.6	47.6	61	34.8	0	0	---	0.00	29.979 
01:45	47.3	47.3	47.3	61	34.5	0	0	---	0.00	29.979 
01:50	47.1	47.1	47.1	61	34.4	0	0	---	0.00	29.979 
01:55	47.1	47.1	47.1	62	34.8	0	0	---	0.00	29.979 
02:00	47.1	47.1	47.1	61	34.4	0	0	---	0.00	29.979 
02:05	47.1	47.1	47.1	61	34.4	0	0	---	0.00	29.979 
02:10	47.1	47.1	47.1	62	34.8	0	0	---	0.00	29.978 
02:15	47.1	47.1	47.1	62	34.8	0	0	---	0.00	29.977 
02:20	47.3	47.3	47.3	62	34.9	0	1	135	0.00	29.975 
02:25	47.6	47.6	47.6	62	35.2	0	1	135	0.00	29.971 
02:30	48.2	48.2	48.2	60	35.0	0	1	135	0.00	29.969 
02:35	48.5	48.5	48.5	59	34.8	0	1	135	0.00	29.969 
02:40	48.6	48.6	48.6	59	34.9	0	1	135	0.00	29.966 
02:45	48.6	48.6	48.6	59	34.9	0	1	135	0.00	29.963 
02:50	48.6	48.6	48.6	59	34.9	0	0	---	0.00	29.964 
02:55	48.5	48.5	48.5	59	34.8	0	0	---	0.00	29.963 
03:00	48.3	48.3	48.3	59	34.6	0	1	135	0.00	29.967 
03:05	48.3	48.3	48.3	59	34.6	0	1	135	0.00	29.966 
03:10	48.3	48.3	48.3	59	34.6	0	1	135	0.00	29.964 
03:15	48.2	48.2	48.2	59	34.6	0	1	135	0.00	29.964 
03:20	48.3	48.3	48.3	59	34.6	0	5	248	0.00	29.964 
03:25	48.3	48.3	48.3	59	34.6	0	0	---	0.00	29.965 
03:30	48.2	48.2	48.2	59	34.6	0	1	248	0.00	29.964 
03:35	48.3	48.3	48.3	59	34.6	0	1	248	0.00	29.963 
03:40	48.3	48.3	48.3	59	34.6	0	1	248	0.00	29.963 
03:45	48.3	48.3	48.3	59	34.6	0	1	248	0.00	29.962 
03:50	48.5	48.5	48.5	59	34.8	0	2	248	0.00	29.961 
03:55	48.6	48.6	48.6	59	34.9	0	2	248	0.00	29.961 
04:00	48.8	48.8	48.8	58	34.7	0	2	68	0.00	29.961 
04:05	49.1	49.1	49.1	58	35.0	1	3	248	0.00	29.962 
04:10	49.2	49.2	49.2	58	35.1	0	1	248	0.00	29.963 
04:15	49.2	49.2	49.2	58	35.1	0	2	248	0.00	29.963 
04:20	49.2	49.2	49.2	58	35.1	0	3	248	0.00	29.962 
04:25	49.4	49.4	49.4	57	34.8	0	5	248	0.00	29.962 
04:30	49.8	49.8	49.8	57	35.2	1	4	225	0.00	29.960 
04:35	50.1	50.1	50.1	56	35.0	1	5	270	0.00	29.960 
04:40	50.2	50.2	50.2	56	35.1	0	2	270	0.00	29.959 
04:45	50.2	50.2	50.2	56	35.1	1	4	248	0.00	29.959 
04:50	50.5	50.5	50.5	55	34.9	1	4	248	0.00	29.955 
04:55	50.7	50.7	50.7	54	34.7	1	5	248	0.00	29.957 
05:00	50.8	50.8	50.8	54	34.8	1	4	248	0.00	29.957 
05:05	50.8	50.8	50.8	54	34.8	1	5	248	0.00	29.959 
05:10	50.8	50.8	50.8	54	34.8	1	3	248	0.00	29.959 
05:15	50.8	50.8	50.8	54	34.8	1	4	248	0.00	29.960 
05:20	50.8	50.8	50.8	54	34.8	0	3	248	0.00	29.960 
05:25	50.7	50.7	50.7	55	35.1	0	3	248	0.00	29.961 
05:30	50.5	50.5	50.5	55	34.9	0	2	248	0.00	29.964 
05:35	50.2	50.2	50.2	56	35.1	0	1	248	0.00	29.965 
05:40	50.1	50.1	50.1	56	35.0	0	4	248	0.00	29.966 
05:45	49.9	49.9	49.9	56	34.8	0	1	248	0.00	29.970 
05:50	49.9	49.9	49.9	57	35.3	0	1	248	0.00	29.972 
05:55	50.1	50.1	50.1	57	35.5	0	3	248	0.00	29.971 
06:00	50.4	50.4	50.4	57	35.7	0	2	248	0.00	29.972 
06:05	50.5	50.5	50.5	56	35.4	1	4	248	0.00	29.973 
06:10	50.5	50.5	50.5	57	35.8	1	4	248	0.00	29.972 
06:15	50.8	50.8	50.8	56	35.7	1	4	270	0.00	29.973 
06:20	51.0	51.0	51.0	56	35.9	1	3	270	0.00	29.975 
06:25	51.3	51.3	51.3	55	35.7	1	5	248	0.00	29.977 
06:30	51.6	51.6	51.6	55	36.0	1	5	225	0.00	29.978 
06:35	51.9	51.9	51.9	54	35.8	1	5	225	0.00	29.977 
06:40	52.0	52.0	52.0	54	35.9	1	3	248	0.00	29.977 
06:45	52.3	52.3	52.3	54	36.2	1	5	248	0.00	29.980 
06:50	52.6	52.6	52.6	53	36.0	2	7	225	0.00	29.986 
06:55	52.9	52.9	52.9	53	36.2	1	4	248	0.00	29.990 
07:00	53.1	53.1	53.1	53	36.4	1	5	270	0.00	29.991 
07:05	53.3	53.3	53.3	53	36.6	1	5	248	0.00	29.992 
07:10	53.6	53.6	53.6	53	36.9	1	6	248	0.00	29.993 
07:15	53.6	53.6	53.6	53	36.9	1	5	270	0.00	29.994 
07:20	53.8	53.8	53.8	53	37.1	1	3	248	0.00	29.995 
07:25	53.8	53.8	53.8	52	36.6	1	5	248	0.00	29.994 
07:30	53.9	53.9	53.9	52	36.7	1	4	248	0.00	29.993 
07:35	54.2	54.2	54.2	52	37.0	1	5	248	0.00	29.994 
07:40	54.4	54.4	54.4	52	37.1	1	6	225	0.00	29.994 
07:45	54.7	54.7	54.7	51	36.9	1	4	248	0.00	29.992 
07:50	55.1	55.1	55.1	51	37.3	1	7	248	0.00	29.993 
07:55	55.3	55.3	55.3	50	37.0	2	6	248	0.00	29.992 
08:00	55.4	55.4	55.4	50	37.1	2	4	248	0.00	29.992 
08:05	55.6	55.6	55.6	50	37.3	1	5	248	0.00	29.994 
08:10	55.9	55.9	55.9	50	37.5	2	5	248	0.00	29.995 
08:15	56.3	56.3	56.3	50	37.9	2	5	248	0.00	29.997 
08:20	56.6	56.6	56.6	49	37.7	2	7	248	0.00	29.996 
08:25	56.9	56.9	56.9	48	37.4	3	6	248	0.00	29.998 
08:30	57.3	57.3	57.3	48	37.8	3	10	248	0.00	29.996 
08:35	57.8	57.8	57.8	48	38.2	3	10	248	0.00	29.995 
08:40	58.4	58.4	58.4	47	38.2	4	10	248	0.00	29.995 
08:45	59.0	59.0	59.0	47	38.8	2	7	248	0.00	29.993 
08:50	59.5	59.5	59.5	46	38.7	3	6	248	0.00	29.995 
08:55	59.8	59.8	59.8	46	39.0	3	9	248	0.00	29.998 
09:00	59.9	59.9	59.9	45	38.5	4	9	248	0.00	30.000 
09:05	59.9	59.9	59.9	45	38.5	5	10	270	0.00	29.999 
09:10	60.4	60.4	60.4	46	39.5	3	9	248	0.00	30.002 
09:15	60.7	60.7	60.7	45	39.2	3	10	248	0.00	30.003 
09:20	61.2	61.2	61.2	44	39.1	4	11	270	0.00	30.005 
09:25	61.0	61.0	61.0	44	38.9	5	11	248	0.00	30.006 
09:30	61.2	61.2	61.2	46	40.3	4	11	270	0.00	30.007 
09:35	61.6	61.6	61.6	44	39.5	4	11	270	0.00	30.005 
09:40	62.0	62.0	62.0	44	39.8	4	11	248	0.00	30.003 
09:45	62.4	62.4	62.4	45	40.8	3	6	248	0.00	30.004 
09:50	62.4	62.4	62.4	43	39.6	4	9	248	0.00	30.004 
09:55	62.6	62.6	62.6	43	39.8	3	9	248	0.00	30.004 
10:00	63.2	63.2	63.2	46	42.1	1	4	248	0.00	30.004 
10:05	63.9	63.9	63.9	46	42.7	1	5	248	0.00	30.006 
10:10	64.3	64.3	64.3	42	40.7	2	7	248	0.00	30.005 
10:15	64.2	64.2	64.2	42	40.6	3	7	248	0.00	30.004 
10:20	64.5	64.5	64.5	45	42.7	2	6	248	0.00	30.004 
10:25	65.0	65.0	65.0	44	42.6	3	10	248	0.00	30.003 
10:30	65.2	65.2	65.2	42	41.5	3	7	248	0.00	30.003 
10:35	65.5	65.5	65.5	43	42.4	3	8	270	0.00	30.003 
10:40	65.6	65.6	65.6	41	41.3	4	10	270	0.00	30.002 
10:45	66.0	66.0	66.0	42	42.2	3	8	270	0.00	30.002 
10:50	66.1	66.1	66.1	43	42.9	3	10	270	0.00	30.003 
10:55	66.3	66.3	66.3	42	42.5	3	9	248	0.00	30.002 
11:00	66.8	66.8	66.8	40	41.7	2	6	248	0.00	30.001 
11:05	67.1	67.1	67.1	42	43.2	2	5	225	0.00	30.000 
11:10	67.4	67.4	67.4	40	42.2	3	9	248	0.00	29.996 
11:15	67.4	67.4	67.4	39	41.6	3	7	248	0.00	29.996 
11:20	67.6	67.6	67.6	43	44.3	2	7	248	0.00	29.995 
11:25	67.9	67.9	67.9	41	43.3	3	8	270	0.00	29.998 
11:30	68.3	68.3	68.3	40	43.0	3	6	248	0.00	29.999 
11:35	68.8	68.8	68.8	39	42.8	3	6	248	0.00	29.997 
11:40	68.6	68.6	68.6	39	42.6	4	10	248	0.00	29.996 
11:45	68.6	68.6	68.6	40	43.3	3	10	248	0.00	29.997 
11:50	69.3	69.3	69.3	40	43.9	2	6	248	0.00	29.999 
11:55	69.4	69.4	69.4	38	42.7	2	6	248	0.00	29.995 
12:00	69.4	69.4	69.4	40	44.0	2	10	248	0.00	29.992 
12:05	69.8	69.8	69.8	40	44.4	2	5	248	0.00	29.991 
12:10	69.4	69.4	69.4	37	42.0	3	5	248	0.00	29.989 
12:15	69.8	69.8	69.8	39	43.7	2	6	248	0.00	29.988 
12:20	69.9	69.9	69.9	37	42.4	2	6	248	0.00	29.987 
12:25	69.9	69.9	69.9	38	43.1	2	6	248	0.00	29.985 
12:30	70.3	70.3	70.3	40	44.8	2	6	248	0.00	29.986 
12:35	70.4	70.4	70.4	40	44.9	3	6	248	0.00	29.985 
12:40	70.8	70.8	70.8	37	43.2	1	3	248	0.00	29.986 
12:45	70.9	70.9	70.9	38	44.0	2	5	248	0.00	29.985 
12:50	70.9	70.9	70.9	43	47.3	2	6	248	0.00	29.983 
12:55	71.1	71.1	71.1	37	43.5	2	5	248	0.00	29.977 
13:00	71.6	71.6	71.6	37	43.9	2	7	248	0.00	29.979 
13:05	71.6	71.6	71.6	36	43.2	3	6	248	0.00	29.978 
13:10	71.5	71.5	71.5	37	43.8	3	9	270	0.00	29.977 
13:15	71.5	71.5	71.5	39	45.2	1	5	248	0.00	29.974 
13:20	72.3	72.3	72.3	42	47.9	1	3	248	0.00	29.973 
13:25	72.5	72.5	72.5	38	45.4	2	5	248	0.00	29.971 
13:30	72.3	72.3	72.3	40	46.6	2	5	248	0.00	29.970 
13:35	72.5	72.5	72.5	40	46.8	2	5	248	0.00	29.968 
13:40	72.3	72.3	72.3	38	45.3	2	10	248	0.00	29.964 
13:45	71.8	71.8	71.8	40	46.2	2	6	248	0.00	29.968 
13:50	72.0	72.0	72.0	35	42.8	2	9	270	0.00	29.963 
13:55	72.5	72.5	72.5	39	46.1	3	10	68	0.00	29.958 
14:00	72.5	72.5	72.5	37	44.7	3	6	248	0.00	29.956 
14:05	72.7	72.7	72.7	37	44.9	3	9	248	0.00	29.956 
14:10	73.0	73.0	73.0	38	45.9	3	10	248	0.00	29.956 
14:15	73.5	73.5	73.5	37	45.6	2	6	248	0.00	29.955 
14:20	74.2	74.2	74.2	39	47.6	2	5	248	0.00	29.952 
14:25	74.6	74.6	74.6	36	45.9	2	5	248	0.00	29.947 
14:30	74.4	74.4	74.4	34	44.2	3	10	248	0.00	29.947 
14:35	74.2	74.2	74.2	33	43.2	4	12	248	0.00	29.943 
14:40	74.2	74.2	74.2	35	44.8	2	7	270	0.00	29.940 
14:45	74.0	74.0	74.0	35	44.6	2	7	248	0.00	29.938 
14:50	74.2	74.2	74.2	33	43.2	4	11	248	0.00	29.936 
14:55	74.4	74.4	74.4	38	47.1	4	10	248	0.00	29.934 
15:00	74.4	74.4	74.4	35	44.9	3	10	90	0.00	29.934 
15:05	74.4	74.4	74.4	33	43.4	3	12	248	0.00	29.935 
15:10	74.4	74.4	74.4	32	42.6	4	13	248	0.00	29.937 
15:15	74.4	74.4	74.4	35	44.9	2	7	248	0.00	29.940 
15:20	74.7	74.7	74.7	33	43.7	4	10	270	0.00	29.939 
15:25	74.7	74.7	74.7	37	46.7	2	7	248	0.00	29.940 
15:30	74.6	74.6	74.6	33	43.6	3	10	248	0.00	29.939 
15:35	74.7	74.7	74.7	36	46.0	2	6	248	0.00	29.940 
15:40	75.1	75.1	77.4	37	47.0	2	6	248	0.00	29.939 
15:45	75.3	75.3	77.2	32	43.4	3	8	248	0.00	29.939 
15:50	75.3	75.3	77.4	36	46.5	2	10	248	0.00	29.938 
15:55	75.4	75.4	77.3	33	44.3	2	5	248	0.00	29.937 
16:00	75.3	75.3	77.3	34	45.0	3	7	270	0.00	29.935 
16:05	74.9	74.9	74.9	35	45.4	2	6	248	0.00	29.934 
16:10	74.6	74.6	74.6	36	45.9	2	7	248	0.00	29.933 
16:15	74.0	74.0	74.0	35	44.6	3	10	292	0.00	29.936 
16:20	73.9	73.9	73.9	35	44.5	2	5	248	0.00	29.935 
16:25	73.9	73.9	73.9	36	45.2	4	7	270	0.00	29.936 
16:30	73.9	73.9	73.9	35	44.5	5	12	270	0.00	29.936 
16:35	74.0	74.0	74.0	36	45.3	2	5	248	0.00	29.936 
16:40	74.4	74.4	74.4	37	46.4	3	8	248	0.00	29.936 
16:45	74.7	74.7	74.7	38	47.4	2	5	248	0.00	29.933 
16:50	74.9	74.9	74.9	38	47.6	2	5	248	0.00	29.931 
16:55	74.9	74.9	74.9	38	47.6	3	6	248	0.00	29.931 
17:00	74.4	74.4	74.4	38	47.1	2	7	270	0.00	29.930 
17:05	74.2	74.2	74.2	39	47.6	2	8	248	0.00	29.931 
17:10	74.0	74.0	74.0	40	48.1	1	5	225	0.00	29.929 
17:15	74.4	74.4	74.4	41	49.1	1	4	248	0.00	29.927 
17:20	74.4	74.4	74.4	41	49.1	2	11	90	0.00	29.924 
17:25	74.0	74.0	74.0	39	47.5	2	5	248	0.00	29.924 
17:30	73.9	73.9	73.9	39	47.4	3	9	248	0.00	29.925 
17:35	73.9	73.9	73.9	40	48.0	3	9	248	0.00	29.926 
17:40	73.9	73.9	73.9	39	47.4	2	10	248	0.00	29.926 
17:45	73.7	73.7	73.7	40	47.9	3	7	248	0.00	29.926 
17:50	73.2	73.2	73.2	40	47.4	3	7	248	0.00	29.928 
17:55	73.2	73.2	73.2	39	46.7	3	7	270	0.00	29.926 
18:00	73.2	73.2	73.2	39	46.7	2	5	248	0.00	29.924 
18:05	73.2	73.2	73.2	40	47.4	2	6	248	0.00	29.921 
18:10	73.0	73.0	73.0	40	47.2	2	6	248	0.00	29.919 
18:15	72.8	72.8	72.8	42	48.4	1	3	315	0.00	29.920 
18:20	72.7	72.7	72.7	43	48.9	1	5	68	0.00	29.919 
18:25	72.5	72.5	72.5	43	48.7	1	3	270	0.00	29.919 
18:30	72.3	72.3	72.3	42	47.9	1	5	135	0.00	29.920 
18:35	72.1	72.1	72.1	42	47.7	1	5	248	0.00	29.919 
18:40	72.1	72.1	72.1	42	47.7	1	5	270	0.00	29.919 
18:45	72.0	72.0	72.0	42	47.6	0	4	270	0.00	29.917 
18:50	71.6	71.6	71.6	41	46.6	1	4	270	0.00	29.916 
18:55	71.5	71.5	71.5	42	47.2	0	3	270	0.00	29.915 
19:00	71.1	71.1	71.1	43	47.5	0	3	292	0.00	29.914 
19:05	70.9	70.9	70.9	43	47.3	1	3	112	0.00	29.912 
19:10	70.8	70.8	70.8	43	47.2	1	4	112	0.00	29.909 
19:15	70.4	70.4	70.4	44	47.4	1	7	90	0.00	29.911 
19:20	70.1	70.1	70.1	45	47.8	0	3	90	0.00	29.910 
19:25	69.8	69.8	69.8	45	47.5	0	2	90	0.00	29.910 
19:30	69.6	69.6	69.6	46	47.9	1	5	338	0.00	29.910 
19:35	69.3	69.3	69.3	46	47.6	0	2	112	0.00	29.911 
19:40	68.9	68.9	68.9	47	47.8	0	1	112	0.00	29.914 
19:45	68.6	68.6	68.6	48	48.1	0	2	112	0.00	29.916 
19:50	68.4	68.4	68.4	49	48.5	0	2	112	0.00	29.920 
19:55	67.9	67.9	67.9	50	48.6	0	2	112	0.00	29.920 
20:00	67.6	67.6	67.6	50	48.3	0	1	112	0.00	29.922 
20:05	67.1	67.1	67.1	51	48.4	0	0	---	0.00	29.920 
20:10	66.8	66.8	66.8	52	48.6	0	0	---	0.00	29.920 
20:15	66.3	66.3	66.3	53	48.6	0	0	---	0.00	29.921 
20:20	66.0	66.0	66.0	53	48.4	0	2	112	0.00	29.923 
20:25	65.8	65.8	65.8	53	48.2	0	1	112	0.00	29.929 
20:30	65.5	65.5	65.5	54	48.4	0	0	---	0.00	29.930 
20:35	65.2	65.2	65.2	54	48.1	0	1	112	0.00	29.933 
20:40	65.2	65.2	65.2	54	48.1	0	2	112	0.00	29.933 
20:45	65.2	65.2	65.2	54	48.1	0	1	112	0.00	29.934 
20:50	65.0	65.0	65.0	54	47.9	0	0	---	0.00	29.934 
20:55	64.8	64.8	64.8	54	47.8	0	1	112	0.00	29.932 
21:00	64.5	64.5	64.5	55	48.0	0	1	112	0.00	29.932 
21:05	64.2	64.2	64.2	56	48.2	0	1	112	0.00	29.928 
21:10	63.9	63.9	63.9	57	48.4	0	1	112	0.00	29.929 
21:15	63.5	63.5	63.5	57	48.0	0	0	---	0.00	29.931 
21:20	63.1	63.1	63.1	58	48.1	0	0	---	0.00	29.932 
21:25	62.6	62.6	62.6	59	48.1	0	0	---	0.00	29.935 
21:30	62.1	62.1	62.1	60	48.0	0	0	---	0.00	29.937 
21:35	61.6	61.6	61.6	60	47.6	0	0	---	0.00	29.938 
21:40	61.2	61.2	61.2	61	47.6	0	0	---	0.00	29.939 
21:45	60.9	60.9	60.9	61	47.4	0	0	---	0.00	29.942 
21:50	60.7	60.7	60.7	62	47.6	0	0	---	0.00	29.945 
21:55	60.4	60.4	60.4	62	47.3	0	0	---	0.00	29.948 
22:00	60.1	60.1	60.1	62	47.0	0	0	---	0.00	29.950 
22:05	59.8	59.8	59.8	63	47.2	0	0	---	0.00	29.947 
22:10	59.5	59.5	59.5	63	46.9	0	0	---	0.00	29.949 
22:15	59.3	59.3	59.3	63	46.7	0	0	---	0.00	29.950 
22:20	59.5	59.5	59.5	63	46.9	0	0	---	0.00	29.951 
22:25	59.5	59.5	59.5	62	46.5	0	0	---	0.00	29.950 
22:30	59.3	59.3	59.3	63	46.7	0	0	---	0.00	29.950 
22:35	59.2	59.2	59.2	63	46.6	0	0	---	0.00	29.949 
22:40	58.9	58.9	58.9	63	46.3	0	0	---	0.00	29.948 
22:45	58.6	58.6	58.6	63	46.0	0	0	---	0.00	29.947 
22:50	58.4	58.4	58.4	64	46.3	0	0	---	0.00	29.949 
22:55	58.3	58.3	58.3	64	46.2	0	1	112	0.00	29.949 
23:00	58.3	58.3	58.3	64	46.2	0	1	112	0.00	29.952 
23:05	58.4	58.4	58.4	63	45.9	0	2	112	0.00	29.951 
23:10	58.7	58.7	58.7	63	46.1	0	2	158	0.00	29.950 
23:15	59.2	59.2	59.2	62	46.2	0	1	158	0.00	29.950 
23:20	59.2	59.2	59.2	62	46.2	0	1	158	0.00	29.951 
23:25	59.0	59.0	59.0	62	46.0	0	0	---	0.00	29.951 
23:30	58.6	58.6	58.6	62	45.6	0	0	---	0.00	29.951 
23:35	58.3	58.3	58.3	63	45.8	0	0	---	0.00	29.954 
23:40	57.8	57.8	57.8	64	45.7	0	0	---	0.00	29.955 
23:45	57.3	57.3	57.3	65	45.6	0	0	---	0.00	29.953 
23:50	57.0	57.0	57.0	65	45.4	0	0	---	0.00	29.952 
23:55	56.7	56.7	56.7	66	45.5	0	0	---	0.00	29.952 

CoCoRaHS
IN-AL-39
A2 Web Hosting
Creative Commons License
GoDaddy
Look for:

loaded 2017-12-12 01:48:04 • last modified 2010-11-18 10:43:29
Privacy PolicyDisclaimer
• wx.awcolley.com is powered by PmWiki v.2002016 •
• all content (unless otherwise noted) © 2017 A W Colley